Terminal Aerodrome Forecast
Issued by NWS Wilmington, OH

Current Version | Previous Version | Text Only | Print | Product List | Glossary Off
Versions: 1 2 3 4 5 6 7 8 9 10 11 12 13 14

000
FTUS41 KILN 021700
TAFILN
TAF
KILN 021733Z 0218/0318 23007KT P6SM BKN070
     FM030100 00000KT P6SM BKN070
     FM030500 00000KT P6SM FEW070 SCT250
     FM031400 21007KT P6SM SCT250
     FM031700 21010KT P6SM SCT050=

USA.gov is the U.S. government's official web portal to all federal, state and local government web resources and services.